createdAt,value
2022-10-06T00:03:50.244Z,13.25
2022-10-06T00:08:53.355Z,13.18
2022-10-06T00:13:56.399Z,13.05
2022-10-06T00:19:01.176Z,12.98
2022-10-06T00:24:04.192Z,12.96
2022-10-06T00:29:07.241Z,12.99
2022-10-06T00:34:11.689Z,12.99
2022-10-06T00:39:14.794Z,12.99
2022-10-06T00:44:17.801Z,12.92
2022-10-06T00:49:24.956Z,12.84
2022-10-06T00:54:28.621Z,12.79
2022-10-06T00:59:31.691Z,12.77
2022-10-06T01:04:37.447Z,12.71
2022-10-06T01:09:41.271Z,12.70
2022-10-06T01:14:44.405Z,12.65
2022-10-06T01:19:50.707Z,12.70
2022-10-06T01:24:55.341Z,12.73
2022-10-06T01:29:58.976Z,12.71
2022-10-06T01:35:02.073Z,12.64
2022-10-06T01:40:07.041Z,12.69
2022-10-06T01:45:10.378Z,12.72
2022-10-06T01:50:13.355Z,12.72
2022-10-06T01:55:17.841Z,12.72
2022-10-06T02:00:21.071Z,12.73
2022-10-06T02:05:24.126Z,12.71
2022-10-06T02:10:28.457Z,12.72
2022-10-06T02:15:33.409Z,12.72
2022-10-06T02:20:36.481Z,12.70
2022-10-06T02:25:40.930Z,12.72
2022-10-06T02:30:44.265Z,12.76
2022-10-06T02:35:47.406Z,12.79
2022-10-06T02:40:51.835Z,12.79
2022-10-06T02:45:56.106Z,12.72
2022-10-06T02:51:00.115Z,12.68
2022-10-06T02:56:05.824Z,12.68
2022-10-06T03:01:09.407Z,12.69
2022-10-06T03:06:22.874Z,12.78
2022-10-06T03:11:29.117Z,12.75
2022-10-06T03:16:33.854Z,12.73
2022-10-06T03:21:38.077Z,12.74
2022-10-06T03:26:43.198Z,12.71
2022-10-06T03:31:46.287Z,12.74
2022-10-06T03:36:49.472Z,12.71
2022-10-06T03:41:53.861Z,12.71
2022-10-06T03:46:56.973Z,12.66
2022-10-06T03:52:00.175Z,12.67
2022-10-06T03:57:04.796Z,12.62
2022-10-06T04:02:07.934Z,12.60
2022-10-06T04:07:11.040Z,12.61
2022-10-06T04:12:15.492Z,12.45
2022-10-06T04:17:18.500Z,12.44
2022-10-06T04:22:21.511Z,12.48
2022-10-06T04:27:29.007Z,12.45
2022-10-06T04:32:32.609Z,12.44
2022-10-06T04:37:35.708Z,12.44
2022-10-06T04:42:40.290Z,12.45
2022-10-06T04:47:43.325Z,12.36
2022-10-06T04:52:46.430Z,12.20
2022-10-06T04:57:50.845Z,12.25
2022-10-06T05:02:54.502Z,12.17
2022-10-06T05:07:57.596Z,12.43
2022-10-06T05:13:03.775Z,12.60
2022-10-06T05:18:06.886Z,12.79
2022-10-06T05:23:09.988Z,12.99
2022-10-06T05:28:14.715Z,13.14
2022-10-06T05:33:17.811Z,13.29
2022-10-06T05:38:21.205Z,13.39
2022-10-06T05:43:25.659Z,13.49
2022-10-06T05:48:29.734Z,13.64
2022-10-06T05:53:34.199Z,13.81
2022-10-06T05:58:39.623Z,13.94
2022-10-06T06:03:43.670Z,14.05
2022-10-06T06:08:46.916Z,14.07
2022-10-06T06:13:51.439Z,14.16
2022-10-06T06:18:54.518Z,14.27
2022-10-06T06:23:57.995Z,14.32
2022-10-06T06:29:04.142Z,14.46
2022-10-06T06:34:07.782Z,14.67
2022-10-06T06:39:13.420Z,14.76
2022-10-06T06:44:17.923Z,14.86
2022-10-06T06:49:22.080Z,15.02
2022-10-06T06:54:27.702Z,15.03
2022-10-06T06:59:33.049Z,15.12
2022-10-06T07:04:37.442Z,15.22
2022-10-06T07:09:40.477Z,15.39
2022-10-06T07:14:58.785Z,15.45
2022-10-06T07:20:19.381Z,15.56
2022-10-06T07:25:25.930Z,15.51
2022-10-06T07:30:31.430Z,15.52
2022-10-06T07:35:34.574Z,15.60
2022-10-06T07:40:40.227Z,15.73
2022-10-06T07:45:51.231Z,15.75
2022-10-06T07:50:54.824Z,15.72
2022-10-06T07:56:05.167Z,15.74
2022-10-06T08:01:11.537Z,15.76
2022-10-06T08:06:16.995Z,15.87
2022-10-06T08:11:20.412Z,15.89
2022-10-06T08:16:30.253Z,16.06
2022-10-06T08:21:34.842Z,16.15
2022-10-06T08:26:37.839Z,16.31
2022-10-06T08:31:42.288Z,16.31
2022-10-06T08:37:02.174Z,16.28
2022-10-06T08:42:10.563Z,16.35
2022-10-06T08:47:18.403Z,16.38
2022-10-06T08:52:27.476Z,16.53
2022-10-06T08:57:35.601Z,16.69
2022-10-06T09:02:43.597Z,16.89
2022-10-06T09:07:52.449Z,17.25
2022-10-06T09:12:58.006Z,17.47
2022-10-06T09:18:10.793Z,17.69
2022-10-06T09:23:16.528Z,17.84
2022-10-06T09:28:19.790Z,17.86
2022-10-06T09:33:25.273Z,17.89
2022-10-06T09:38:46.092Z,18.04
2022-10-06T09:43:53.579Z,18.37
2022-10-06T09:49:11.449Z,18.77
2022-10-06T09:54:16.369Z,19.04
2022-10-06T09:59:21.361Z,19.29
2022-10-06T10:04:26.886Z,19.66
2022-10-06T10:09:31.662Z,19.62
2022-10-06T10:14:37.849Z,19.70
2022-10-06T10:19:43.002Z,19.84
2022-10-06T10:24:51.427Z,20.33
2022-10-06T10:30:01.814Z,20.99
2022-10-06T10:35:10.484Z,20.87
2022-10-06T10:40:23.605Z,20.53
2022-10-06T10:45:32.303Z,20.00
2022-10-06T10:50:40.638Z,19.64
2022-10-06T10:55:47.482Z,19.36
2022-10-06T11:00:53.292Z,19.19
2022-10-06T11:06:06.097Z,18.99
2022-10-06T11:11:14.335Z,18.88
2022-10-06T11:16:23.900Z,18.77
2022-10-06T11:21:28.508Z,18.84
2022-10-06T11:26:42.531Z,19.03
2022-10-06T11:31:54.709Z,19.00
2022-10-06T11:37:02.632Z,19.15
2022-10-06T11:42:11.558Z,19.96
2022-10-06T11:47:17.467Z,20.95
2022-10-06T11:52:36.870Z,20.63
2022-10-06T11:58:12.598Z,20.06
2022-10-06T12:03:56.668Z,19.67
2022-10-06T12:08:59.731Z,19.64
2022-10-06T12:19:32.551Z,20.86
2022-10-06T12:24:41.296Z,22.15
2022-10-06T12:29:48.948Z,22.78
2022-10-06T12:34:57.052Z,21.70
2022-10-06T12:40:15.168Z,21.02
2022-10-06T12:45:19.739Z,20.72
2022-10-06T12:50:25.347Z,20.28
2022-10-06T12:55:34.655Z,19.89
2022-10-06T13:00:40.991Z,19.63
2022-10-06T13:05:50.031Z,19.41
2022-10-06T13:11:11.403Z,19.29
2022-10-06T13:16:15.976Z,19.25
2022-10-06T13:21:19.100Z,19.21
2022-10-06T13:26:23.218Z,19.14
2022-10-06T13:31:28.434Z,19.08
2022-10-06T13:36:32.390Z,19.29
2022-10-06T13:41:37.156Z,19.54
2022-10-06T13:46:45.161Z,19.80
2022-10-06T13:51:49.767Z,19.86
2022-10-06T13:56:53.316Z,19.77
2022-10-06T14:01:58.569Z,19.70
2022-10-06T14:07:02.840Z,19.65
2022-10-06T14:12:07.445Z,19.58
2022-10-06T14:17:21.749Z,19.46
2022-10-06T14:22:31.408Z,19.39
2022-10-06T14:27:34.584Z,19.27
2022-10-06T14:32:40.222Z,19.13
2022-10-06T14:37:43.372Z,18.95
2022-10-06T14:47:55.880Z,18.70
2022-10-06T14:53:00.054Z,18.66
2022-10-06T14:58:03.825Z,18.61
2022-10-06T15:03:08.331Z,18.51
2022-10-06T15:08:11.902Z,18.45
2022-10-06T15:13:15.040Z,18.41
2022-10-06T15:18:19.582Z,18.35
2022-10-06T15:23:22.701Z,18.29
2022-10-06T15:28:43.317Z,18.26
2022-10-06T15:33:49.871Z,18.22
2022-10-06T15:38:57.125Z,18.18
2022-10-06T15:44:00.438Z,18.16
2022-10-06T15:49:06.192Z,18.00
2022-10-06T15:54:10.933Z,17.93
2022-10-06T15:59:14.127Z,17.88
2022-10-06T16:04:26.118Z,17.77
2022-10-06T16:09:30.687Z,17.65
2022-10-06T16:14:34.162Z,17.62
2022-10-06T16:19:40.125Z,17.57
2022-10-06T16:24:43.385Z,17.53
2022-10-06T16:29:46.482Z,17.49
2022-10-06T16:34:51.476Z,17.36
2022-10-06T16:39:54.641Z,17.36
2022-10-06T16:44:57.709Z,17.30
2022-10-06T16:50:02.183Z,17.18
2022-10-06T16:55:05.606Z,17.15
2022-10-06T17:00:09.303Z,17.05
2022-10-06T17:05:13.762Z,17.00
2022-10-06T17:10:20.655Z,16.93
2022-10-06T17:15:24.084Z,16.87
2022-10-06T17:20:28.523Z,16.84
2022-10-06T17:25:31.646Z,16.74
2022-10-06T17:30:34.993Z,16.66
2022-10-06T17:35:39.540Z,16.61
2022-10-06T17:40:44.301Z,16.52
2022-10-06T17:45:47.814Z,16.51
2022-10-06T17:50:59.748Z,16.46
2022-10-06T17:56:07.404Z,16.49
2022-10-06T18:01:12.743Z,16.42
2022-10-06T18:06:17.882Z,16.34
2022-10-06T18:11:38.497Z,16.26
2022-10-06T18:16:42.522Z,16.15
2022-10-06T18:21:48.100Z,16.07
2022-10-06T18:26:51.887Z,15.96
2022-10-06T18:31:55.517Z,15.89
2022-10-06T18:37:00.435Z,15.86
2022-10-06T18:42:05.414Z,15.85
2022-10-06T18:47:37.513Z,15.82
2022-10-06T18:52:43.819Z,15.79
2022-10-06T18:57:47.278Z,15.69
2022-10-06T19:02:51.899Z,15.59
2022-10-06T19:07:56.517Z,15.49
2022-10-06T19:12:59.574Z,15.39
2022-10-06T19:18:04.199Z,15.26
2022-10-06T19:23:08.771Z,15.18
2022-10-06T19:28:11.852Z,15.07
2022-10-06T19:33:15.001Z,15.06
2022-10-06T19:38:19.417Z,14.96
2022-10-06T19:43:25.777Z,14.91
2022-10-06T19:48:29.289Z,14.88
2022-10-06T19:53:34.449Z,14.76
2022-10-06T19:58:37.726Z,14.76
2022-10-06T20:03:41.650Z,14.72
2022-10-06T20:08:46.170Z,14.63
2022-10-06T20:13:49.758Z,14.53
2022-10-06T20:18:52.863Z,14.47
2022-10-06T20:23:58.248Z,14.45
2022-10-06T20:29:01.700Z,14.38
2022-10-06T20:34:07.243Z,14.36
2022-10-06T20:39:31.440Z,14.24
2022-10-06T20:44:34.503Z,14.12
2022-10-06T20:49:37.731Z,14.13
2022-10-06T20:54:42.313Z,14.03
2022-10-06T20:59:46.274Z,14.04
2022-10-06T21:04:49.393Z,13.90
2022-10-06T21:09:53.882Z,13.86
2022-10-06T21:14:57.480Z,13.66
2022-10-06T21:20:00.653Z,13.67
2022-10-06T21:25:05.309Z,13.53
2022-10-06T21:30:10.263Z,13.49
2022-10-06T21:35:13.412Z,13.37
2022-10-06T21:40:17.862Z,13.33
2022-10-06T21:45:24.327Z,13.20
2022-10-06T21:50:28.149Z,13.14
2022-10-06T21:55:32.612Z,13.11
2022-10-06T22:00:36.128Z,12.98
2022-10-06T22:05:39.272Z,12.85
2022-10-06T22:10:43.697Z,12.63
2022-10-06T22:15:46.842Z,12.52
2022-10-06T22:20:49.961Z,12.64
2022-10-06T22:25:58.203Z,12.51
2022-10-06T22:31:05.375Z,12.38
2022-10-06T22:36:09.364Z,12.31
2022-10-06T22:41:14.364Z,12.36
2022-10-06T22:46:17.474Z,12.45
2022-10-06T22:51:20.671Z,12.54
2022-10-06T22:56:29.209Z,12.45
2022-10-06T23:01:32.385Z,12.34
2022-10-06T23:06:36.152Z,12.39
2022-10-06T23:11:40.577Z,12.32
2022-10-06T23:16:43.684Z,12.24
2022-10-06T23:21:46.878Z,12.25
2022-10-06T23:26:51.336Z,12.11
2022-10-06T23:31:54.501Z,12.14
2022-10-06T23:36:57.639Z,12.07
2022-10-06T23:42:02.106Z,12.04
2022-10-06T23:47:05.445Z,11.93
2022-10-06T23:52:08.501Z,11.98
2022-10-06T23:57:12.855Z,11.89
